ENBL/FDE METAR and TAF weather

Enter ICAO airport designator
Station Type Date Time Source
ENBL METAR 2018/01/24 07:20 UTC NOAA

ENBL 240720Z 22008KT 9999 -RA FEW008 SCT013 BKN018 02/01 Q0989


Station Type Date Time Source
ENBL Decoded METAR 2018/01/24 07:20 UTC NOAA

Forde / Bringeland, Norway (ENBL) 61-27N 005-52E
Jan 24, 2018 - 02:20 AM EST / 2018.01.24 0720 UTC
Wind: from the SW (220 degrees) at 9 MPH (8 KT):0
Visibility: greater than 7 mile(s):0
Sky conditions: mostly cloudy
Weather: light rain
Temperature: 35 F (2 C)
Windchill: 28 F (-2 C):1
Dew Point: 33 F (1 C)
Relative Humidity: 93%
Pressure (altimeter): 29.21 in. Hg (0989 hPa)
ob: ENBL 240720Z 22008KT 9999 -RA FEW008 SCT013 BKN018 02/01 Q0989
cycle: 7

Station Type Date Time Source
ENBL TAF UTC NOAA

Error!


Example: see airport list